sensor_id;sensor_type;location;lat;lon;timestamp;P1;durP1;ratioP1;P2;durP2;ratioP2
177;SDS011;77;48.792;9.032;2023-05-01T00:00:16;14.40;;;9.00;;
177;SDS011;77;48.792;9.032;2023-05-01T00:02:42;11.97;;;8.50;;
177;SDS011;77;48.792;9.032;2023-05-01T00:05:07;12.20;;;8.20;;
177;SDS011;77;48.792;9.032;2023-05-01T00:07:34;11.63;;;8.30;;
177;SDS011;77;48.792;9.032;2023-05-01T00:09:59;13.20;;;8.80;;
177;SDS011;77;48.792;9.032;2023-05-01T00:12:24;12.90;;;8.17;;
177;SDS011;77;48.792;9.032;2023-05-01T00:14:49;13.37;;;8.77;;
177;SDS011;77;48.792;9.032;2023-05-01T00:17:15;12.20;;;8.83;;
177;SDS011;77;48.792;9.032;2023-05-01T00:19:40;14.20;;;8.83;;
177;SDS011;77;48.792;9.032;2023-05-01T00:22:05;14.53;;;9.17;;
177;SDS011;77;48.792;9.032;2023-05-01T00:24:32;12.20;;;8.37;;
177;SDS011;77;48.792;9.032;2023-05-01T00:26:57;12.10;;;8.60;;
177;SDS011;77;48.792;9.032;2023-05-01T00:29:22;12.87;;;8.63;;
177;SDS011;77;48.792;9.032;2023-05-01T00:31:47;13.60;;;8.70;;
177;SDS011;77;48.792;9.032;2023-05-01T00:34:12;13.27;;;8.93;;
177;SDS011;77;48.792;9.032;2023-05-01T00:36:38;14.43;;;9.20;;
177;SDS011;77;48.792;9.032;2023-05-01T00:39:03;14.40;;;9.67;;
177;SDS011;77;48.792;9.032;2023-05-01T00:41:29;15.13;;;8.80;;
177;SDS011;77;48.792;9.032;2023-05-01T00:43:54;14.17;;;8.97;;
177;SDS011;77;48.792;9.032;2023-05-01T00:46:20;12.70;;;8.97;;
177;SDS011;77;48.792;9.032;2023-05-01T00:48:45;13.77;;;8.93;;
177;SDS011;77;48.792;9.032;2023-05-01T00:51:10;15.00;;;9.03;;
177;SDS011;77;48.792;9.032;2023-05-01T00:53:36;12.43;;;8.87;;
177;SDS011;77;48.792;9.032;2023-05-01T00:56:01;14.93;;;9.23;;
177;SDS011;77;48.792;9.032;2023-05-01T00:58:29;12.50;;;8.40;;
177;SDS011;77;48.792;9.032;2023-05-01T01:00:54;14.83;;;8.80;;
177;SDS011;77;48.792;9.032;2023-05-01T01:03:19;13.20;;;9.67;;
177;SDS011;77;48.792;9.032;2023-05-01T01:05:45;14.80;;;8.87;;
177;SDS011;77;48.792;9.032;2023-05-01T01:08:14;13.57;;;9.13;;
177;SDS011;77;48.792;9.032;2023-05-01T01:10:42;16.20;;;9.70;;
177;SDS011;77;48.792;9.032;2023-05-01T01:13:12;13.23;;;9.20;;
177;SDS011;77;48.792;9.032;2023-05-01T01:15:41;15.40;;;9.20;;
177;SDS011;77;48.792;9.032;2023-05-01T01:18:08;13.93;;;9.00;;
177;SDS011;77;48.792;9.032;2023-05-01T01:20:37;14.13;;;9.10;;
177;SDS011;77;48.792;9.032;2023-05-01T01:23:10;13.70;;;9.23;;
177;SDS011;77;48.792;9.032;2023-05-01T01:28:27;11.80;;;8.60;;
177;SDS011;77;48.792;9.032;2023-05-01T01:33:44;12.23;;;8.40;;
177;SDS011;77;48.792;9.032;2023-05-01T01:36:15;14.90;;;8.87;;
177;SDS011;77;48.792;9.032;2023-05-01T01:38:41;12.80;;;8.90;;
177;SDS011;77;48.792;9.032;2023-05-01T01:41:08;12.73;;;8.27;;
177;SDS011;77;48.792;9.032;2023-05-01T01:43:37;13.53;;;8.40;;
177;SDS011;77;48.792;9.032;2023-05-01T01:46:04;12.27;;;8.70;;
177;SDS011;77;48.792;9.032;2023-05-01T01:48:31;11.73;;;8.23;;
177;SDS011;77;48.792;9.032;2023-05-01T01:50:58;13.83;;;8.47;;
177;SDS011;77;48.792;9.032;2023-05-01T01:53:24;17.03;;;9.00;;
177;SDS011;77;48.792;9.032;2023-05-01T01:55:50;11.90;;;8.53;;
177;SDS011;77;48.792;9.032;2023-05-01T01:58:16;13.70;;;9.37;;
177;SDS011;77;48.792;9.032;2023-05-01T02:00:43;12.87;;;9.30;;
177;SDS011;77;48.792;9.032;2023-05-01T02:03:08;12.70;;;8.80;;
177;SDS011;77;48.792;9.032;2023-05-01T02:05:34;13.90;;;9.20;;
177;SDS011;77;48.792;9.032;2023-05-01T02:08:01;12.83;;;9.23;;
177;SDS011;77;48.792;9.032;2023-05-01T02:10:27;13.20;;;8.70;;
177;SDS011;77;48.792;9.032;2023-05-01T02:12:53;13.87;;;8.43;;
177;SDS011;77;48.792;9.032;2023-05-01T02:15:20;14.40;;;9.13;;
177;SDS011;77;48.792;9.032;2023-05-01T02:17:46;13.23;;;8.70;;
177;SDS011;77;48.792;9.032;2023-05-01T02:20:12;11.23;;;8.43;;
177;SDS011;77;48.792;9.032;2023-05-01T02:22:38;12.90;;;8.30;;
177;SDS011;77;48.792;9.032;2023-05-01T02:25:05;15.17;;;8.33;;
177;SDS011;77;48.792;9.032;2023-05-01T02:27:33;14.27;;;8.03;;
177;SDS011;77;48.792;9.032;2023-05-01T02:29:59;13.43;;;9.30;;
177;SDS011;77;48.792;9.032;2023-05-01T02:32:24;13.80;;;8.87;;
177;SDS011;77;48.792;9.032;2023-05-01T02:34:49;13.10;;;8.97;;
177;SDS011;77;48.792;9.032;2023-05-01T02:37:14;12.57;;;8.80;;
177;SDS011;77;48.792;9.032;2023-05-01T02:39:40;13.40;;;9.30;;
177;SDS011;77;48.792;9.032;2023-05-01T02:42:07;17.00;;;9.13;;
177;SDS011;77;48.792;9.032;2023-05-01T02:44:35;13.13;;;8.47;;
177;SDS011;77;48.792;9.032;2023-05-01T02:47:02;12.87;;;9.00;;
177;SDS011;77;48.792;9.032;2023-05-01T02:49:29;14.67;;;9.43;;
177;SDS011;77;48.792;9.032;2023-05-01T02:51:55;13.30;;;9.03;;
177;SDS011;77;48.792;9.032;2023-05-01T02:54:20;13.00;;;9.00;;
177;SDS011;77;48.792;9.032;2023-05-01T02:56:45;13.87;;;8.87;;
177;SDS011;77;48.792;9.032;2023-05-01T02:59:12;14.00;;;9.23;;
177;SDS011;77;48.792;9.032;2023-05-01T03:01:37;14.90;;;9.03;;
177;SDS011;77;48.792;9.032;2023-05-01T03:04:02;14.57;;;9.13;;
177;SDS011;77;48.792;9.032;2023-05-01T03:06:27;12.37;;;9.00;;
177;SDS011;77;48.792;9.032;2023-05-01T03:08:52;12.33;;;8.47;;
177;SDS011;77;48.792;9.032;2023-05-01T03:11:18;13.13;;;8.87;;
177;SDS011;77;48.792;9.032;2023-05-01T03:13:43;15.30;;;9.43;;
177;SDS011;77;48.792;9.032;2023-05-01T03:16:09;12.50;;;8.73;;
177;SDS011;77;48.792;9.032;2023-05-01T03:18:34;13.90;;;8.83;;
177;SDS011;77;48.792;9.032;2023-05-01T03:20:59;14.30;;;9.20;;
177;SDS011;77;48.792;9.032;2023-05-01T03:23:25;17.70;;;9.03;;
177;SDS011;77;48.792;9.032;2023-05-01T03:25:50;15.13;;;9.20;;
177;SDS011;77;48.792;9.032;2023-05-01T03:28:15;13.60;;;8.73;;
177;SDS011;77;48.792;9.032;2023-05-01T03:30:40;13.70;;;9.20;;
177;SDS011;77;48.792;9.032;2023-05-01T03:33:07;14.40;;;9.27;;
177;SDS011;77;48.792;9.032;2023-05-01T03:35:32;15.87;;;9.93;;
177;SDS011;77;48.792;9.032;2023-05-01T03:37:57;15.50;;;9.33;;
177;SDS011;77;48.792;9.032;2023-05-01T03:40:22;13.93;;;9.23;;
177;SDS011;77;48.792;9.032;2023-05-01T03:42:48;14.63;;;9.37;;
177;SDS011;77;48.792;9.032;2023-05-01T03:45:13;13.77;;;8.60;;
177;SDS011;77;48.792;9.032;2023-05-01T03:47:38;16.03;;;9.00;;
177;SDS011;77;48.792;9.032;2023-05-01T03:50:05;11.43;;;8.37;;
177;SDS011;77;48.792;9.032;2023-05-01T03:52:31;13.97;;;8.80;;
177;SDS011;77;48.792;9.032;2023-05-01T03:54:56;13.80;;;9.07;;
177;SDS011;77;48.792;9.032;2023-05-01T03:57:21;15.30;;;9.13;;
177;SDS011;77;48.792;9.032;2023-05-01T03:59:46;14.10;;;9.10;;
177;SDS011;77;48.792;9.032;2023-05-01T04:02:11;15.40;;;9.40;;
177;SDS011;77;48.792;9.032;2023-05-01T04:04:37;13.50;;;9.60;;
177;SDS011;77;48.792;9.032;2023-05-01T04:07:03;12.70;;;9.00;;
177;SDS011;77;48.792;9.032;2023-05-01T04:09:28;14.57;;;9.33;;
177;SDS011;77;48.792;9.032;2023-05-01T04:11:54;14.10;;;9.00;;
177;SDS011;77;48.792;9.032;2023-05-01T04:14:19;16.50;;;10.00;;
177;SDS011;77;48.792;9.032;2023-05-01T04:16:44;15.17;;;9.40;;
177;SDS011;77;48.792;9.032;2023-05-01T04:19:09;14.80;;;9.23;;
177;SDS011;77;48.792;9.032;2023-05-01T04:21:34;15.67;;;9.30;;
177;SDS011;77;48.792;9.032;2023-05-01T04:24:01;15.03;;;10.07;;
177;SDS011;77;48.792;9.032;2023-05-01T04:26:26;15.23;;;9.90;;
177;SDS011;77;48.792;9.032;2023-05-01T04:28:51;16.93;;;9.53;;
177;SDS011;77;48.792;9.032;2023-05-01T04:31:16;15.60;;;9.77;;
177;SDS011;77;48.792;9.032;2023-05-01T04:33:41;15.23;;;9.53;;
177;SDS011;77;48.792;9.032;2023-05-01T04:36:06;13.07;;;8.87;;
177;SDS011;77;48.792;9.032;2023-05-01T04:38:32;14.60;;;9.33;;
177;SDS011;77;48.792;9.032;2023-05-01T04:40:58;13.63;;;8.97;;
177;SDS011;77;48.792;9.032;2023-05-01T04:43:23;17.23;;;10.80;;
177;SDS011;77;48.792;9.032;2023-05-01T04:45:48;15.73;;;10.70;;
177;SDS011;77;48.792;9.032;2023-05-01T04:48:14;17.70;;;10.93;;
177;SDS011;77;48.792;9.032;2023-05-01T04:50:39;17.57;;;10.70;;
177;SDS011;77;48.792;9.032;2023-05-01T04:53:04;17.23;;;10.43;;
177;SDS011;77;48.792;9.032;2023-05-01T04:55:29;16.27;;;10.67;;
177;SDS011;77;48.792;9.032;2023-05-01T04:57:56;17.83;;;10.10;;
177;SDS011;77;48.792;9.032;2023-05-01T05:00:21;14.33;;;10.13;;
177;SDS011;77;48.792;9.032;2023-05-01T05:02:46;18.23;;;10.30;;
177;SDS011;77;48.792;9.032;2023-05-01T05:05:11;14.97;;;9.73;;
177;SDS011;77;48.792;9.032;2023-05-01T05:07:36;16.10;;;10.40;;
177;SDS011;77;48.792;9.032;2023-05-01T05:10:02;16.73;;;10.90;;
177;SDS011;77;48.792;9.032;2023-05-01T05:12:27;15.93;;;10.20;;
177;SDS011;77;48.792;9.032;2023-05-01T05:14:53;16.90;;;11.00;;
177;SDS011;77;48.792;9.032;2023-05-01T05:17:19;16.40;;;10.60;;
177;SDS011;77;48.792;9.032;2023-05-01T05:19:44;18.67;;;11.40;;
177;SDS011;77;48.792;9.032;2023-05-01T05:22:09;17.50;;;11.43;;
177;SDS011;77;48.792;9.032;2023-05-01T05:24:34;17.83;;;11.20;;
177;SDS011;77;48.792;9.032;2023-05-01T05:26:59;18.20;;;12.10;;
177;SDS011;77;48.792;9.032;2023-05-01T05:29:24;21.30;;;11.40;;
177;SDS011;77;48.792;9.032;2023-05-01T05:31:51;18.67;;;11.90;;
177;SDS011;77;48.792;9.032;2023-05-01T05:34:16;19.70;;;12.10;;
177;SDS011;77;48.792;9.032;2023-05-01T05:36:41;17.80;;;11.87;;
177;SDS011;77;48.792;9.032;2023-05-01T05:39:07;19.17;;;11.70;;
177;SDS011;77;48.792;9.032;2023-05-01T05:41:32;20.50;;;13.17;;
177;SDS011;77;48.792;9.032;2023-05-01T05:43:57;18.10;;;12.00;;
177;SDS011;77;48.792;9.032;2023-05-01T05:46:22;18.77;;;12.70;;
177;SDS011;77;48.792;9.032;2023-05-01T05:48:48;20.77;;;12.67;;
177;SDS011;77;48.792;9.032;2023-05-01T05:51:14;19.50;;;12.70;;
177;SDS011;77;48.792;9.032;2023-05-01T05:53:39;20.50;;;12.77;;
177;SDS011;77;48.792;9.032;2023-05-01T05:56:04;17.60;;;12.07;;
177;SDS011;77;48.792;9.032;2023-05-01T05:58:30;18.90;;;12.30;;
177;SDS011;77;48.792;9.032;2023-05-01T06:00:55;21.87;;;13.03;;
177;SDS011;77;48.792;9.032;2023-05-01T06:03:20;19.93;;;12.57;;
177;SDS011;77;48.792;9.032;2023-05-01T06:05:47;19.20;;;11.87;;
177;SDS011;77;48.792;9.032;2023-05-01T06:08:12;18.10;;;11.70;;
177;SDS011;77;48.792;9.032;2023-05-01T06:10:38;17.80;;;12.10;;
177;SDS011;77;48.792;9.032;2023-05-01T06:13:03;19.80;;;12.13;;
177;SDS011;77;48.792;9.032;2023-05-01T06:15:28;17.43;;;12.03;;
177;SDS011;77;48.792;9.032;2023-05-01T06:17:53;21.13;;;13.87;;
177;SDS011;77;48.792;9.032;2023-05-01T06:20:18;21.60;;;14.13;;
177;SDS011;77;48.792;9.032;2023-05-01T06:22:45;23.20;;;14.57;;
177;SDS011;77;48.792;9.032;2023-05-01T06:25:10;21.43;;;13.27;;
177;SDS011;77;48.792;9.032;2023-05-01T06:27:35;19.33;;;13.40;;
177;SDS011;77;48.792;9.032;2023-05-01T06:30:00;21.03;;;13.50;;
177;SDS011;77;48.792;9.032;2023-05-01T06:32:26;22.57;;;12.57;;
177;SDS011;77;48.792;9.032;2023-05-01T06:34:51;20.80;;;12.80;;
177;SDS011;77;48.792;9.032;2023-05-01T06:37:16;19.13;;;12.60;;
177;SDS011;77;48.792;9.032;2023-05-01T06:39:42;19.83;;;12.60;;
177;SDS011;77;48.792;9.032;2023-05-01T06:42:08;19.93;;;12.37;;
177;SDS011;77;48.792;9.032;2023-05-01T06:44:33;16.73;;;10.90;;
177;SDS011;77;48.792;9.032;2023-05-01T06:46:58;17.57;;;11.67;;
177;SDS011;77;48.792;9.032;2023-05-01T06:49:23;16.37;;;10.73;;
177;SDS011;77;48.792;9.032;2023-05-01T06:51:48;16.97;;;10.97;;
177;SDS011;77;48.792;9.032;2023-05-01T06:54:13;17.20;;;10.90;;
177;SDS011;77;48.792;9.032;2023-05-01T06:56:40;17.40;;;11.13;;
177;SDS011;77;48.792;9.032;2023-05-01T06:59:05;20.47;;;12.00;;
177;SDS011;77;48.792;9.032;2023-05-01T07:01:30;16.60;;;11.27;;
177;SDS011;77;48.792;9.032;2023-05-01T07:03:55;18.83;;;11.33;;
177;SDS011;77;48.792;9.032;2023-05-01T07:06:20;17.87;;;12.23;;
177;SDS011;77;48.792;9.032;2023-05-01T07:08:46;17.00;;;10.33;;
177;SDS011;77;48.792;9.032;2023-05-01T07:11:11;14.00;;;10.03;;
177;SDS011;77;48.792;9.032;2023-05-01T07:13:37;14.33;;;9.37;;
177;SDS011;77;48.792;9.032;2023-05-01T07:16:03;13.33;;;8.67;;
177;SDS011;77;48.792;9.032;2023-05-01T07:18:28;14.73;;;9.70;;
177;SDS011;77;48.792;9.032;2023-05-01T07:20:53;15.43;;;10.17;;
177;SDS011;77;48.792;9.032;2023-05-01T07:23:18;13.90;;;9.60;;
177;SDS011;77;48.792;9.032;2023-05-01T07:25:43;11.90;;;8.60;;
177;SDS011;77;48.792;9.032;2023-05-01T07:28:09;13.83;;;9.07;;
177;SDS011;77;48.792;9.032;2023-05-01T07:30:35;14.67;;;9.47;;
177;SDS011;77;48.792;9.032;2023-05-01T07:33:00;15.00;;;9.23;;
177;SDS011;77;48.792;9.032;2023-05-01T07:35:26;14.43;;;9.30;;
177;SDS011;77;48.792;9.032;2023-05-01T07:37:51;13.80;;;9.20;;
177;SDS011;77;48.792;9.032;2023-05-01T07:40:16;13.93;;;9.00;;
177;SDS011;77;48.792;9.032;2023-05-01T07:42:41;16.20;;;9.40;;
177;SDS011;77;48.792;9.032;2023-05-01T07:45:07;19.30;;;11.40;;
177;SDS011;77;48.792;9.032;2023-05-01T07:47:33;19.57;;;13.40;;
177;SDS011;77;48.792;9.032;2023-05-01T07:49:59;16.00;;;11.17;;
177;SDS011;77;48.792;9.032;2023-05-01T07:52:24;16.30;;;10.20;;
177;SDS011;77;48.792;9.032;2023-05-01T07:54:49;15.60;;;9.77;;
177;SDS011;77;48.792;9.032;2023-05-01T07:57:14;12.97;;;9.23;;
177;SDS011;77;48.792;9.032;2023-05-01T07:59:39;13.50;;;9.33;;
177;SDS011;77;48.792;9.032;2023-05-01T08:02:05;14.63;;;9.80;;
177;SDS011;77;48.792;9.032;2023-05-01T08:04:31;13.20;;;8.97;;
177;SDS011;77;48.792;9.032;2023-05-01T08:06:57;13.80;;;9.07;;
177;SDS011;77;48.792;9.032;2023-05-01T08:09:22;13.47;;;9.30;;
177;SDS011;77;48.792;9.032;2023-05-01T08:11:47;13.53;;;8.63;;
177;SDS011;77;48.792;9.032;2023-05-01T08:14:12;11.87;;;8.97;;
177;SDS011;77;48.792;9.032;2023-05-01T08:16:38;12.20;;;9.00;;
177;SDS011;77;48.792;9.032;2023-05-01T08:19:03;15.10;;;9.70;;
177;SDS011;77;48.792;9.032;2023-05-01T08:21:29;13.13;;;8.90;;
177;SDS011;77;48.792;9.032;2023-05-01T08:23:55;13.80;;;9.50;;
177;SDS011;77;48.792;9.032;2023-05-01T08:26:20;13.27;;;9.25;;
177;SDS011;77;48.792;9.032;2023-05-01T08:28:45;12.03;;;8.70;;
177;SDS011;77;48.792;9.032;2023-05-01T08:31:10;15.83;;;9.03;;
177;SDS011;77;48.792;9.032;2023-05-01T08:33:35;12.27;;;8.63;;
177;SDS011;77;48.792;9.032;2023-05-01T08:36:00;10.93;;;8.20;;
177;SDS011;77;48.792;9.032;2023-05-01T08:38:27;11.03;;;8.07;;
177;SDS011;77;48.792;9.032;2023-05-01T08:40:52;11.17;;;8.40;;
177;SDS011;77;48.792;9.032;2023-05-01T08:43:18;12.20;;;8.83;;
177;SDS011;77;48.792;9.032;2023-05-01T08:45:43;12.40;;;8.13;;
177;SDS011;77;48.792;9.032;2023-05-01T08:48:10;12.03;;;8.80;;
177;SDS011;77;48.792;9.032;2023-05-01T08:50:36;10.97;;;8.27;;
177;SDS011;77;48.792;9.032;2023-05-01T08:53:02;14.87;;;8.23;;
177;SDS011;77;48.792;9.032;2023-05-01T08:55:30;9.70;;;7.30;;
177;SDS011;77;48.792;9.032;2023-05-01T08:57:55;10.80;;;8.23;;
177;SDS011;77;48.792;9.032;2023-05-01T09:00:21;11.57;;;8.10;;
177;SDS011;77;48.792;9.032;2023-05-01T09:02:49;11.97;;;8.73;;
177;SDS011;77;48.792;9.032;2023-05-01T09:05:14;12.40;;;8.80;;
177;SDS011;77;48.792;9.032;2023-05-01T09:07:39;11.13;;;8.20;;
177;SDS011;77;48.792;9.032;2023-05-01T09:10:05;14.77;;;8.00;;
177;SDS011;77;48.792;9.032;2023-05-01T09:12:32;10.20;;;7.70;;
177;SDS011;77;48.792;9.032;2023-05-01T09:14:57;11.00;;;8.07;;
177;SDS011;77;48.792;9.032;2023-05-01T09:17:22;13.23;;;7.80;;
177;SDS011;77;48.792;9.032;2023-05-01T09:19:48;11.00;;;7.80;;
177;SDS011;77;48.792;9.032;2023-05-01T09:22:14;13.87;;;8.40;;
177;SDS011;77;48.792;9.032;2023-05-01T09:24:39;11.50;;;8.03;;
177;SDS011;77;48.792;9.032;2023-05-01T09:27:04;9.70;;;7.43;;
177;SDS011;77;48.792;9.032;2023-05-01T09:29:38;12.10;;;8.57;;
177;SDS011;77;48.792;9.032;2023-05-01T09:32:11;11.20;;;8.47;;
177;SDS011;77;48.792;9.032;2023-05-01T09:34:36;12.33;;;8.43;;
177;SDS011;77;48.792;9.032;2023-05-01T09:37:02;10.90;;;8.23;;
177;SDS011;77;48.792;9.032;2023-05-01T09:39:27;11.13;;;7.50;;
177;SDS011;77;48.792;9.032;2023-05-01T09:41:52;9.50;;;7.20;;
177;SDS011;77;48.792;9.032;2023-05-01T09:44:17;9.50;;;7.17;;
177;SDS011;77;48.792;9.032;2023-05-01T09:46:44;8.83;;;6.97;;
177;SDS011;77;48.792;9.032;2023-05-01T09:49:09;9.20;;;6.90;;
177;SDS011;77;48.792;9.032;2023-05-01T09:51:34;8.80;;;7.30;;
177;SDS011;77;48.792;9.032;2023-05-01T09:54:00;9.70;;;6.83;;
177;SDS011;77;48.792;9.032;2023-05-01T09:56:25;9.37;;;7.30;;
177;SDS011;77;48.792;9.032;2023-05-01T09:58:51;12.27;;;8.77;;
177;SDS011;77;48.792;9.032;2023-05-01T10:01:17;14.03;;;8.80;;
177;SDS011;77;48.792;9.032;2023-05-01T10:03:44;12.70;;;8.67;;
177;SDS011;77;48.792;9.032;2023-05-01T10:06:09;11.33;;;8.50;;
177;SDS011;77;48.792;9.032;2023-05-01T10:08:44;12.53;;;9.40;;
177;SDS011;77;48.792;9.032;2023-05-01T10:11:09;13.60;;;9.73;;
177;SDS011;77;48.792;9.032;2023-05-01T10:13:34;12.93;;;10.10;;
177;SDS011;77;48.792;9.032;2023-05-01T10:16:00;14.20;;;10.17;;
177;SDS011;77;48.792;9.032;2023-05-01T10:18:25;13.90;;;9.70;;
177;SDS011;77;48.792;9.032;2023-05-01T10:20:51;14.57;;;9.93;;
177;SDS011;77;48.792;9.032;2023-05-01T10:23:16;12.87;;;9.87;;
177;SDS011;77;48.792;9.032;2023-05-01T10:25:42;16.27;;;9.90;;
177;SDS011;77;48.792;9.032;2023-05-01T10:28:08;14.47;;;11.30;;
177;SDS011;77;48.792;9.032;2023-05-01T10:30:33;13.67;;;10.33;;
177;SDS011;77;48.792;9.032;2023-05-01T10:32:59;14.23;;;10.30;;
177;SDS011;77;48.792;9.032;2023-05-01T10:35:25;14.60;;;10.50;;
177;SDS011;77;48.792;9.032;2023-05-01T10:37:57;17.10;;;11.17;;
177;SDS011;77;48.792;9.032;2023-05-01T10:43:13;16.43;;;11.00;;
177;SDS011;77;48.792;9.032;2023-05-01T10:45:40;14.10;;;10.60;;
177;SDS011;77;48.792;9.032;2023-05-01T10:48:06;15.10;;;11.60;;
177;SDS011;77;48.792;9.032;2023-05-01T10:50:33;14.00;;;10.40;;
177;SDS011;77;48.792;9.032;2023-05-01T10:53:20;13.77;;;10.43;;
177;SDS011;77;48.792;9.032;2023-05-01T10:55:46;15.70;;;11.53;;
177;SDS011;77;48.792;9.032;2023-05-01T10:58:12;14.97;;;10.20;;
177;SDS011;77;48.792;9.032;2023-05-01T11:00:39;15.87;;;11.80;;
177;SDS011;77;48.792;9.032;2023-05-01T11:06:03;18.07;;;11.10;;
177;SDS011;77;48.792;9.032;2023-05-01T11:08:31;15.73;;;11.90;;
177;SDS011;77;48.792;9.032;2023-05-01T11:10:57;14.63;;;10.90;;
177;SDS011;77;48.792;9.032;2023-05-01T11:18:45;14.60;;;11.70;;
177;SDS011;77;48.792;9.032;2023-05-01T11:21:11;14.40;;;11.27;;
177;SDS011;77;48.792;9.032;2023-05-01T11:23:38;16.53;;;10.87;;
177;SDS011;77;48.792;9.032;2023-05-01T11:26:11;15.03;;;11.37;;
177;SDS011;77;48.792;9.032;2023-05-01T11:28:37;14.77;;;10.80;;
177;SDS011;77;48.792;9.032;2023-05-01T11:31:02;15.23;;;12.10;;
177;SDS011;77;48.792;9.032;2023-05-01T11:33:28;15.60;;;11.33;;
177;SDS011;77;48.792;9.032;2023-05-01T11:35:59;16.00;;;11.03;;
177;SDS011;77;48.792;9.032;2023-05-01T11:38:25;14.27;;;10.73;;
177;SDS011;77;48.792;9.032;2023-05-01T11:40:54;15.10;;;11.33;;
177;SDS011;77;48.792;9.032;2023-05-01T11:43:20;15.40;;;11.30;;
177;SDS011;77;48.792;9.032;2023-05-01T11:45:45;17.50;;;11.87;;
177;SDS011;77;48.792;9.032;2023-05-01T11:48:15;16.27;;;11.60;;
177;SDS011;77;48.792;9.032;2023-05-01T11:50:41;15.63;;;11.17;;
177;SDS011;77;48.792;9.032;2023-05-01T11:53:09;16.20;;;11.03;;
177;SDS011;77;48.792;9.032;2023-05-01T11:55:34;15.47;;;10.83;;
177;SDS011;77;48.792;9.032;2023-05-01T11:58:01;17.43;;;11.03;;
177;SDS011;77;48.792;9.032;2023-05-01T12:00:27;14.40;;;10.57;;
177;SDS011;77;48.792;9.032;2023-05-01T12:03:00;16.73;;;11.57;;
177;SDS011;77;48.792;9.032;2023-05-01T12:05:26;13.07;;;10.10;;
177;SDS011;77;48.792;9.032;2023-05-01T12:08:04;14.53;;;10.13;;
177;SDS011;77;48.792;9.032;2023-05-01T12:10:30;14.10;;;10.30;;
177;SDS011;77;48.792;9.032;2023-05-01T12:12:56;12.30;;;10.20;;
177;SDS011;77;48.792;9.032;2023-05-01T12:15:25;12.07;;;8.93;;
177;SDS011;77;48.792;9.032;2023-05-01T12:17:50;12.67;;;9.40;;
177;SDS011;77;48.792;9.032;2023-05-01T12:20:16;12.53;;;8.70;;
177;SDS011;77;48.792;9.032;2023-05-01T12:22:47;11.97;;;9.63;;
177;SDS011;77;48.792;9.032;2023-05-01T12:25:13;13.33;;;8.80;;
177;SDS011;77;48.792;9.032;2023-05-01T12:27:41;16.50;;;10.67;;
177;SDS011;77;48.792;9.032;2023-05-01T12:30:07;14.10;;;9.57;;
177;SDS011;77;48.792;9.032;2023-05-01T12:32:35;12.90;;;9.13;;
177;SDS011;77;48.792;9.032;2023-05-01T12:35:11;11.10;;;8.57;;
177;SDS011;77;48.792;9.032;2023-05-01T12:37:39;10.73;;;8.37;;
177;SDS011;77;48.792;9.032;2023-05-01T12:40:06;11.40;;;8.10;;
177;SDS011;77;48.792;9.032;2023-05-01T12:42:37;10.27;;;8.17;;
177;SDS011;77;48.792;9.032;2023-05-01T12:45:03;14.20;;;8.73;;
177;SDS011;77;48.792;9.032;2023-05-01T12:47:36;11.00;;;8.27;;
177;SDS011;77;48.792;9.032;2023-05-01T12:50:02;10.40;;;8.17;;
177;SDS011;77;48.792;9.032;2023-05-01T12:52:29;11.23;;;8.50;;
177;SDS011;77;48.792;9.032;2023-05-01T12:55:00;11.50;;;7.90;;
177;SDS011;77;48.792;9.032;2023-05-01T12:57:26;10.20;;;7.90;;
177;SDS011;77;48.792;9.032;2023-05-01T12:59:57;12.10;;;8.13;;
177;SDS011;77;48.792;9.032;2023-05-01T13:02:27;11.10;;;8.20;;
177;SDS011;77;48.792;9.032;2023-05-01T13:05:00;11.40;;;8.43;;
177;SDS011;77;48.792;9.032;2023-05-01T13:07:30;10.87;;;8.83;;
177;SDS011;77;48.792;9.032;2023-05-01T13:09:56;11.87;;;9.13;;
177;SDS011;77;48.792;9.032;2023-05-01T13:12:22;11.83;;;8.60;;
177;SDS011;77;48.792;9.032;2023-05-01T13:14:48;10.47;;;7.90;;
177;SDS011;77;48.792;9.032;2023-05-01T13:17:21;9.40;;;7.80;;
177;SDS011;77;48.792;9.032;2023-05-01T13:19:51;13.37;;;7.80;;
177;SDS011;77;48.792;9.032;2023-05-01T13:22:18;11.60;;;7.93;;
177;SDS011;77;48.792;9.032;2023-05-01T13:24:51;11.07;;;8.10;;
177;SDS011;77;48.792;9.032;2023-05-01T13:27:19;11.73;;;8.83;;
177;SDS011;77;48.792;9.032;2023-05-01T13:29:49;10.87;;;8.30;;
177;SDS011;77;48.792;9.032;2023-05-01T13:32:15;10.50;;;8.33;;
177;SDS011;77;48.792;9.032;2023-05-01T13:34:41;11.70;;;8.30;;
177;SDS011;77;48.792;9.032;2023-05-01T13:37:08;10.60;;;8.33;;
177;SDS011;77;48.792;9.032;2023-05-01T13:39:35;10.17;;;7.70;;
177;SDS011;77;48.792;9.032;2023-05-01T13:42:01;9.93;;;7.40;;
177;SDS011;77;48.792;9.032;2023-05-01T13:44:27;11.13;;;7.30;;
177;SDS011;77;48.792;9.032;2023-05-01T13:46:52;11.13;;;8.03;;
177;SDS011;77;48.792;9.032;2023-05-01T13:49:19;11.90;;;8.40;;
177;SDS011;77;48.792;9.032;2023-05-01T13:51:45;10.17;;;8.00;;
177;SDS011;77;48.792;9.032;2023-05-01T13:54:11;11.00;;;7.27;;
177;SDS011;77;48.792;9.032;2023-05-01T13:56:39;12.33;;;8.80;;
177;SDS011;77;48.792;9.032;2023-05-01T13:59:04;11.77;;;8.30;;
177;SDS011;77;48.792;9.032;2023-05-01T14:01:30;8.40;;;6.77;;
177;SDS011;77;48.792;9.032;2023-05-01T14:03:55;8.93;;;7.00;;
177;SDS011;77;48.792;9.032;2023-05-01T14:06:20;9.93;;;8.00;;
177;SDS011;77;48.792;9.032;2023-05-01T14:08:46;10.73;;;7.90;;
177;SDS011;77;48.792;9.032;2023-05-01T14:11:11;12.17;;;9.90;;
177;SDS011;77;48.792;9.032;2023-05-01T14:13:40;9.00;;;6.70;;
177;SDS011;77;48.792;9.032;2023-05-01T14:16:05;10.40;;;7.53;;
177;SDS011;77;48.792;9.032;2023-05-01T14:18:31;10.90;;;8.30;;
177;SDS011;77;48.792;9.032;2023-05-01T14:20:57;9.40;;;7.20;;
177;SDS011;77;48.792;9.032;2023-05-01T14:23:22;10.03;;;7.17;;
177;SDS011;77;48.792;9.032;2023-05-01T14:25:48;9.43;;;6.77;;
177;SDS011;77;48.792;9.032;2023-05-01T14:28:13;12.50;;;8.47;;
177;SDS011;77;48.792;9.032;2023-05-01T14:30:40;12.30;;;8.50;;
177;SDS011;77;48.792;9.032;2023-05-01T14:33:06;9.93;;;7.90;;
177;SDS011;77;48.792;9.032;2023-05-01T14:35:31;11.03;;;8.30;;
177;SDS011;77;48.792;9.032;2023-05-01T14:38:06;12.63;;;9.10;;
177;SDS011;77;48.792;9.032;2023-05-01T14:40:31;10.50;;;8.60;;
177;SDS011;77;48.792;9.032;2023-05-01T14:42:57;13.43;;;8.90;;
177;SDS011;77;48.792;9.032;2023-05-01T14:45:22;15.80;;;8.87;;
177;SDS011;77;48.792;9.032;2023-05-01T14:47:49;11.13;;;9.10;;
177;SDS011;77;48.792;9.032;2023-05-01T14:50:17;13.63;;;9.63;;
177;SDS011;77;48.792;9.032;2023-05-01T14:52:43;11.57;;;8.97;;
177;SDS011;77;48.792;9.032;2023-05-01T14:55:09;13.93;;;10.10;;
177;SDS011;77;48.792;9.032;2023-05-01T14:57:34;11.97;;;9.07;;
177;SDS011;77;48.792;9.032;2023-05-01T15:00:00;14.17;;;10.30;;
177;SDS011;77;48.792;9.032;2023-05-01T15:02:25;18.67;;;9.60;;
177;SDS011;77;48.792;9.032;2023-05-01T15:04:51;17.73;;;10.57;;
177;SDS011;77;48.792;9.032;2023-05-01T15:07:16;14.13;;;10.33;;
177;SDS011;77;48.792;9.032;2023-05-01T15:09:42;14.33;;;10.30;;
177;SDS011;77;48.792;9.032;2023-05-01T15:12:07;17.27;;;11.20;;
177;SDS011;77;48.792;9.032;2023-05-01T15:14:32;15.10;;;10.30;;
177;SDS011;77;48.792;9.032;2023-05-01T15:16:57;14.77;;;10.10;;
177;SDS011;77;48.792;9.032;2023-05-01T15:19:23;15.60;;;10.93;;
177;SDS011;77;48.792;9.032;2023-05-01T15:21:49;15.53;;;10.67;;
177;SDS011;77;48.792;9.032;2023-05-01T15:24:14;14.53;;;10.60;;
177;SDS011;77;48.792;9.032;2023-05-01T15:26:39;15.27;;;10.40;;
177;SDS011;77;48.792;9.032;2023-05-01T15:29:05;15.80;;;10.13;;
177;SDS011;77;48.792;9.032;2023-05-01T15:31:30;15.37;;;9.97;;
177;SDS011;77;48.792;9.032;2023-05-01T15:33:55;15.70;;;10.70;;
177;SDS011;77;48.792;9.032;2023-05-01T15:36:20;14.60;;;10.30;;
177;SDS011;77;48.792;9.032;2023-05-01T15:38:47;16.23;;;10.80;;
177;SDS011;77;48.792;9.032;2023-05-01T15:41:12;14.57;;;9.50;;
177;SDS011;77;48.792;9.032;2023-05-01T15:43:37;15.37;;;10.40;;
177;SDS011;77;48.792;9.032;2023-05-01T15:46:02;14.83;;;9.70;;
177;SDS011;77;48.792;9.032;2023-05-01T15:48:28;15.83;;;10.07;;